sensor_id;sensor_type;location;lat;lon;timestamp;pressure;altitude;pressure_sealevel;temperature;humidity
76321;BME280;65132;52.088;5.402;2023-04-06T00:01:00;101948.50;;;1.94;84.48
76321;BME280;65132;52.088;5.402;2023-04-06T00:03:27;101957.50;;;1.91;84.55
76321;BME280;65132;52.088;5.402;2023-04-06T00:05:53;101943.47;;;1.86;84.13
76321;BME280;65132;52.088;5.402;2023-04-06T00:08:19;101945.41;;;1.83;84.50
76321;BME280;65132;52.088;5.402;2023-04-06T00:10:46;101940.00;;;1.84;85.17
76321;BME280;65132;52.088;5.402;2023-04-06T00:13:12;101946.94;;;1.88;84.59
76321;BME280;65132;52.088;5.402;2023-04-06T00:15:43;101945.66;;;1.77;84.63
76321;BME280;65132;52.088;5.402;2023-04-06T00:18:09;101941.06;;;1.80;84.75
76321;BME280;65132;52.088;5.402;2023-04-06T00:20:36;101939.63;;;1.72;83.88
76321;BME280;65132;52.088;5.402;2023-04-06T00:23:02;101944.44;;;1.62;83.81
76321;BME280;65132;52.088;5.402;2023-04-06T00:25:34;101939.31;;;1.58;84.38
76321;BME280;65132;52.088;5.402;2023-04-06T00:28:01;101946.56;;;1.54;84.84
76321;BME280;65132;52.088;5.402;2023-04-06T00:30:28;101926.59;;;1.64;85.83
76321;BME280;65132;52.088;5.402;2023-04-06T00:32:54;101932.69;;;1.68;84.71
76321;BME280;65132;52.088;5.402;2023-04-06T00:35:20;101923.78;;;1.67;84.03
76321;BME280;65132;52.088;5.402;2023-04-06T00:37:47;101921.63;;;1.55;84.89
76321;BME280;65132;52.088;5.402;2023-04-06T00:40:13;101922.50;;;1.56;84.57
76321;BME280;65132;52.088;5.402;2023-04-06T00:42:41;101918.34;;;1.49;86.34
76321;BME280;65132;52.088;5.402;2023-04-06T00:45:08;101915.31;;;1.36;85.55
76321;BME280;65132;52.088;5.402;2023-04-06T00:47:36;101916.97;;;1.39;85.87
76321;BME280;65132;52.088;5.402;2023-04-06T00:50:04;101910.53;;;1.44;85.79
76321;BME280;65132;52.088;5.402;2023-04-06T00:52:33;101907.09;;;1.41;85.99
76321;BME280;65132;52.088;5.402;2023-04-06T00:55:03;101907.09;;;1.41;86.00
76321;BME280;65132;52.088;5.402;2023-04-06T00:57:30;101904.50;;;1.39;85.97
76321;BME280;65132;52.088;5.402;2023-04-06T00:59:57;101904.44;;;1.41;86.15
76321;BME280;65132;52.088;5.402;2023-04-06T01:02:24;101901.66;;;1.44;86.34
76321;BME280;65132;52.088;5.402;2023-04-06T01:04:54;101895.88;;;1.33;86.29
76321;BME280;65132;52.088;5.402;2023-04-06T01:07:20;101895.81;;;1.34;86.64
76321;BME280;65132;52.088;5.402;2023-04-06T01:09:47;101887.41;;;1.45;87.69
76321;BME280;65132;52.088;5.402;2023-04-06T01:12:13;101885.91;;;1.59;86.47
76321;BME280;65132;52.088;5.402;2023-04-06T01:14:39;101883.97;;;1.63;85.17
76321;BME280;65132;52.088;5.402;2023-04-06T01:17:07;101876.13;;;1.60;85.08
76321;BME280;65132;52.088;5.402;2023-04-06T01:19:34;101870.66;;;1.63;84.40
76321;BME280;65132;52.088;5.402;2023-04-06T01:22:02;101871.13;;;1.51;84.77
76321;BME280;65132;52.088;5.402;2023-04-06T01:24:29;101876.84;;;1.63;86.95
76321;BME280;65132;52.088;5.402;2023-04-06T01:26:55;101875.50;;;1.53;86.42
76321;BME280;65132;52.088;5.402;2023-04-06T01:29:22;101875.50;;;1.53;88.23
76321;BME280;65132;52.088;5.402;2023-04-06T01:31:56;101863.06;;;1.52;87.25
76321;BME280;65132;52.088;5.402;2023-04-06T01:34:26;101874.75;;;1.50;86.64
76321;BME280;65132;52.088;5.402;2023-04-06T01:36:53;101865.06;;;1.47;86.24
76321;BME280;65132;52.088;5.402;2023-04-06T01:39:20;101861.66;;;1.44;85.97
76321;BME280;65132;52.088;5.402;2023-04-06T01:41:46;101855.00;;;1.54;86.65
76321;BME280;65132;52.088;5.402;2023-04-06T01:44:16;101860.84;;;1.63;87.16
76321;BME280;65132;52.088;5.402;2023-04-06T01:46:43;101856.56;;;1.59;86.98
76321;BME280;65132;52.088;5.402;2023-04-06T01:49:09;101851.94;;;1.84;86.68
76321;BME280;65132;52.088;5.402;2023-04-06T01:51:38;101846.28;;;1.92;85.41
76321;BME280;65132;52.088;5.402;2023-04-06T01:54:06;101846.44;;;1.89;84.98
76321;BME280;65132;52.088;5.402;2023-04-06T01:56:33;101836.94;;;1.82;85.38
76321;BME280;65132;52.088;5.402;2023-04-06T01:59:03;101841.59;;;1.77;85.43
76321;BME280;65132;52.088;5.402;2023-04-06T02:01:30;101844.81;;;1.85;87.83
76321;BME280;65132;52.088;5.402;2023-04-06T02:03:56;101831.34;;;1.88;87.45
76321;BME280;65132;52.088;5.402;2023-04-06T02:06:22;101821.19;;;1.96;87.70
76321;BME280;65132;52.088;5.402;2023-04-06T02:08:50;101820.94;;;2.02;86.61
76321;BME280;65132;52.088;5.402;2023-04-06T02:11:17;101824.28;;;2.07;85.75
76321;BME280;65132;52.088;5.402;2023-04-06T02:13:44;101818.66;;;2.13;86.08
76321;BME280;65132;52.088;5.402;2023-04-06T02:16:10;101816.19;;;2.28;87.08
76321;BME280;65132;52.088;5.402;2023-04-06T02:18:37;101814.38;;;2.29;86.48
76321;BME280;65132;52.088;5.402;2023-04-06T02:21:05;101814.63;;;2.43;86.17
76321;BME280;65132;52.088;5.402;2023-04-06T02:23:39;101800.91;;;2.51;86.46
76321;BME280;65132;52.088;5.402;2023-04-06T02:26:05;101797.84;;;2.60;85.72
76321;BME280;65132;52.088;5.402;2023-04-06T02:28:31;101795.97;;;2.62;86.20
76321;BME280;65132;52.088;5.402;2023-04-06T02:30:58;101798.31;;;2.49;86.48
76321;BME280;65132;52.088;5.402;2023-04-06T02:33:24;101798.25;;;2.51;85.94
76321;BME280;65132;52.088;5.402;2023-04-06T02:35:50;101793.94;;;2.48;86.23
76321;BME280;65132;52.088;5.402;2023-04-06T02:38:17;101797.53;;;2.47;87.55
76321;BME280;65132;52.088;5.402;2023-04-06T02:40:43;101796.53;;;2.50;87.94
76321;BME280;65132;52.088;5.402;2023-04-06T02:43:10;101793.63;;;2.54;87.91
76321;BME280;65132;52.088;5.402;2023-04-06T02:45:38;101785.91;;;2.48;87.42
76321;BME280;65132;52.088;5.402;2023-04-06T02:48:05;101791.84;;;2.55;86.80
76321;BME280;65132;52.088;5.402;2023-04-06T02:50:31;101783.97;;;2.52;87.44
76321;BME280;65132;52.088;5.402;2023-04-06T02:52:58;101778.00;;;2.65;87.29
76321;BME280;65132;52.088;5.402;2023-04-06T02:55:26;101773.13;;;2.55;86.91
76321;BME280;65132;52.088;5.402;2023-04-06T02:57:53;101779.13;;;2.60;87.80
76321;BME280;65132;52.088;5.402;2023-04-06T03:00:23;101771.03;;;2.61;87.81
76321;BME280;65132;52.088;5.402;2023-04-06T03:02:49;101765.63;;;2.63;87.65
76321;BME280;65132;52.088;5.402;2023-04-06T03:05:16;101762.13;;;2.62;87.48
76321;BME280;65132;52.088;5.402;2023-04-06T03:07:45;101761.81;;;2.68;87.66
76321;BME280;65132;52.088;5.402;2023-04-06T03:10:11;101768.69;;;2.74;86.35
76321;BME280;65132;52.088;5.402;2023-04-06T03:12:39;101757.03;;;2.75;87.52
76321;BME280;65132;52.088;5.402;2023-04-06T03:15:07;101748.03;;;2.77;87.11
76321;BME280;65132;52.088;5.402;2023-04-06T03:17:34;101754.28;;;2.76;87.79
76321;BME280;65132;52.088;5.402;2023-04-06T03:20:00;101756.03;;;2.77;88.09
76321;BME280;65132;52.088;5.402;2023-04-06T03:22:26;101754.81;;;2.84;88.08
76321;BME280;65132;52.088;5.402;2023-04-06T03:24:53;101750.69;;;2.96;88.20
76321;BME280;65132;52.088;5.402;2023-04-06T03:27:22;101751.25;;;3.02;87.55
76321;BME280;65132;52.088;5.402;2023-04-06T03:29:51;101747.41;;;3.08;86.55
76321;BME280;65132;52.088;5.402;2023-04-06T03:32:27;101743.78;;;3.09;86.75
76321;BME280;65132;52.088;5.402;2023-04-06T03:34:53;101746.78;;;3.03;86.63
76321;BME280;65132;52.088;5.402;2023-04-06T03:37:19;101741.63;;;2.98;87.09
76321;BME280;65132;52.088;5.402;2023-04-06T03:39:48;101739.91;;;2.97;87.36
76321;BME280;65132;52.088;5.402;2023-04-06T03:42:14;101748.56;;;3.02;88.34
76321;BME280;65132;52.088;5.402;2023-04-06T03:44:41;101742.91;;;3.08;87.79
76321;BME280;65132;52.088;5.402;2023-04-06T03:47:08;101744.81;;;3.06;87.87
76321;BME280;65132;52.088;5.402;2023-04-06T03:49:35;101741.66;;;3.15;87.95
76321;BME280;65132;52.088;5.402;2023-04-06T03:52:02;101743.19;;;3.21;87.56
76321;BME280;65132;52.088;5.402;2023-04-06T03:54:29;101735.41;;;3.16;87.56
76321;BME280;65132;52.088;5.402;2023-04-06T03:56:56;101738.53;;;3.07;88.94
76321;BME280;65132;52.088;5.402;2023-04-06T03:59:31;101732.75;;;2.98;88.75
76321;BME280;65132;52.088;5.402;2023-04-06T04:01:59;101735.16;;;2.85;89.72
76321;BME280;65132;52.088;5.402;2023-04-06T04:04:43;101731.75;;;2.82;90.71
76321;BME280;65132;52.088;5.402;2023-04-06T04:07:11;101733.28;;;2.69;90.42
76321;BME280;65132;52.088;5.402;2023-04-06T04:09:40;101728.53;;;2.75;90.50
76321;BME280;65132;52.088;5.402;2023-04-06T04:12:09;101724.69;;;2.81;90.34
76321;BME280;65132;52.088;5.402;2023-04-06T04:14:40;101724.31;;;2.88;90.06
76321;BME280;65132;52.088;5.402;2023-04-06T04:17:06;101725.94;;;3.09;84.91
76321;BME280;65132;52.088;5.402;2023-04-06T04:19:32;101719.84;;;3.24;85.56
76321;BME280;65132;52.088;5.402;2023-04-06T04:21:59;101722.44;;;3.43;80.80
76321;BME280;65132;52.088;5.402;2023-04-06T04:24:28;101726.16;;;3.57;83.39
76321;BME280;65132;52.088;5.402;2023-04-06T04:26:54;101716.81;;;3.66;81.35
76321;BME280;65132;52.088;5.402;2023-04-06T04:29:21;101721.63;;;3.92;76.25
76321;BME280;65132;52.088;5.402;2023-04-06T04:31:48;101723.41;;;4.09;74.23
76321;BME280;65132;52.088;5.402;2023-04-06T04:34:14;101717.56;;;4.18;73.06
76321;BME280;65132;52.088;5.402;2023-04-06T04:36:41;101716.97;;;4.13;72.62
76321;BME280;65132;52.088;5.402;2023-04-06T04:39:12;101722.06;;;4.17;71.88
76321;BME280;65132;52.088;5.402;2023-04-06T04:41:38;101724.34;;;4.25;71.03
76321;BME280;65132;52.088;5.402;2023-04-06T04:44:08;101727.81;;;4.27;72.05
76321;BME280;65132;52.088;5.402;2023-04-06T04:46:37;101721.56;;;4.26;73.11
76321;BME280;65132;52.088;5.402;2023-04-06T04:49:06;101714.63;;;4.22;72.22
76321;BME280;65132;52.088;5.402;2023-04-06T04:51:43;101724.34;;;4.25;72.83
76321;BME280;65132;52.088;5.402;2023-04-06T04:54:09;101713.44;;;4.28;71.18
76321;BME280;65132;52.088;5.402;2023-04-06T04:56:36;101718.50;;;4.34;70.97
76321;BME280;65132;52.088;5.402;2023-04-06T04:59:03;101718.31;;;4.37;70.61
76321;BME280;65132;52.088;5.402;2023-04-06T05:01:30;101720.03;;;4.38;70.73
76321;BME280;65132;52.088;5.402;2023-04-06T05:04:20;101719.91;;;4.41;72.24
76321;BME280;65132;52.088;5.402;2023-04-06T05:06:49;101713.56;;;4.42;73.12
76321;BME280;65132;52.088;5.402;2023-04-06T05:09:19;101709.78;;;4.46;74.30
76321;BME280;65132;52.088;5.402;2023-04-06T05:11:48;101706.22;;;4.45;75.27
76321;BME280;65132;52.088;5.402;2023-04-06T05:14:17;101712.38;;;4.47;74.99
76321;BME280;65132;52.088;5.402;2023-04-06T05:16:43;101707.72;;;4.51;74.64
76321;BME280;65132;52.088;5.402;2023-04-06T05:19:11;101704.94;;;4.52;74.76
76321;BME280;65132;52.088;5.402;2023-04-06T05:21:38;101714.47;;;4.58;75.97
76321;BME280;65132;52.088;5.402;2023-04-06T05:24:07;101707.97;;;4.62;74.83
76321;BME280;65132;52.088;5.402;2023-04-06T05:26:33;101709.38;;;4.69;75.01
76321;BME280;65132;52.088;5.402;2023-04-06T05:28:59;101706.34;;;4.75;75.50
76321;BME280;65132;52.088;5.402;2023-04-06T05:31:27;101706.00;;;4.81;76.33
76321;BME280;65132;52.088;5.402;2023-04-06T05:33:56;101706.69;;;4.84;75.68
76321;BME280;65132;52.088;5.402;2023-04-06T05:36:23;101701.41;;;4.83;72.37
76321;BME280;65132;52.088;5.402;2023-04-06T05:38:54;101701.06;;;4.89;72.05
76321;BME280;65132;52.088;5.402;2023-04-06T05:41:20;101701.41;;;4.99;71.59
76321;BME280;65132;52.088;5.402;2023-04-06T05:43:54;101694.56;;;5.09;72.03
76321;BME280;65132;52.088;5.402;2023-04-06T05:46:22;101699.31;;;5.19;71.98
76321;BME280;65132;52.088;5.402;2023-04-06T05:48:49;101705.09;;;5.27;71.03
76321;BME280;65132;52.088;5.402;2023-04-06T05:51:16;101691.47;;;5.30;68.89
76321;BME280;65132;52.088;5.402;2023-04-06T05:53:42;101694.84;;;5.34;69.82
76321;BME280;65132;52.088;5.402;2023-04-06T05:56:11;101695.38;;;5.25;67.76
76321;BME280;65132;52.088;5.402;2023-04-06T05:58:38;101693.28;;;5.30;70.50
76321;BME280;65132;52.088;5.402;2023-04-06T06:01:04;101688.78;;;5.30;69.33
76321;BME280;65132;52.088;5.402;2023-04-06T06:03:33;101697.34;;;5.37;68.86
76321;BME280;65132;52.088;5.402;2023-04-06T06:06:04;101694.47;;;5.40;67.83
76321;BME280;65132;52.088;5.402;2023-04-06T06:08:31;101692.84;;;5.37;67.66
76321;BME280;65132;52.088;5.402;2023-04-06T06:10:57;101692.56;;;5.42;67.96
76321;BME280;65132;52.088;5.402;2023-04-06T06:13:29;101694.72;;;5.51;67.05
76321;BME280;65132;52.088;5.402;2023-04-06T06:16:03;101699.69;;;5.57;67.27
76321;BME280;65132;52.088;5.402;2023-04-06T06:18:31;101692.53;;;5.57;67.56
76321;BME280;65132;52.088;5.402;2023-04-06T06:20:59;101690.22;;;5.65;67.90
76321;BME280;65132;52.088;5.402;2023-04-06T06:23:25;101690.06;;;5.68;67.32
76321;BME280;65132;52.088;5.402;2023-04-06T06:25:51;101683.38;;;5.75;67.61
76321;BME280;65132;52.088;5.402;2023-04-06T06:28:20;101696.41;;;5.81;67.34
76321;BME280;65132;52.088;5.402;2023-04-06T06:30:49;101691.69;;;6.00;68.19
76321;BME280;65132;52.088;5.402;2023-04-06T06:33:16;101690.44;;;6.06;67.32
76321;BME280;65132;52.088;5.402;2023-04-06T06:35:43;101693.78;;;6.09;67.37
76321;BME280;65132;52.088;5.402;2023-04-06T06:38:12;101692.66;;;6.14;65.66
76321;BME280;65132;52.088;5.402;2023-04-06T06:40:40;101694.28;;;6.16;65.79
76321;BME280;65132;52.088;5.402;2023-04-06T06:43:08;101698.91;;;6.28;64.72
76321;BME280;65132;52.088;5.402;2023-04-06T06:45:35;101680.66;;;6.33;64.72
76321;BME280;65132;52.088;5.402;2023-04-06T06:48:01;101680.25;;;6.39;64.19
76321;BME280;65132;52.088;5.402;2023-04-06T06:50:28;101684.88;;;6.37;65.35
76321;BME280;65132;52.088;5.402;2023-04-06T06:52:55;101690.91;;;6.41;64.58
76321;BME280;65132;52.088;5.402;2023-04-06T06:55:21;101694.16;;;6.46;65.18
76321;BME280;65132;52.088;5.402;2023-04-06T06:57:48;101689.25;;;6.66;64.54
76321;BME280;65132;52.088;5.402;2023-04-06T07:00:14;101682.72;;;6.70;65.73
76321;BME280;65132;52.088;5.402;2023-04-06T07:02:40;101688.19;;;6.69;65.60
76321;BME280;65132;52.088;5.402;2023-04-06T07:05:07;101684.22;;;6.74;65.70
76321;BME280;65132;52.088;5.402;2023-04-06T07:07:53;101680.41;;;6.64;64.24
76321;BME280;65132;52.088;5.402;2023-04-06T07:10:20;101673.69;;;6.57;64.31
76321;BME280;65132;52.088;5.402;2023-04-06T07:12:47;101678.69;;;6.63;65.16
76321;BME280;65132;52.088;5.402;2023-04-06T07:15:13;101672.66;;;6.60;63.70
76321;BME280;65132;52.088;5.402;2023-04-06T07:17:40;101666.78;;;6.67;64.96
76321;BME280;65132;52.088;5.402;2023-04-06T07:20:07;101664.47;;;6.61;64.92
76321;BME280;65132;52.088;5.402;2023-04-06T07:22:33;101671.66;;;6.75;64.79
76321;BME280;65132;52.088;5.402;2023-04-06T07:24:59;101669.53;;;6.66;64.36
76321;BME280;65132;52.088;5.402;2023-04-06T07:27:28;101677.03;;;6.75;65.34
76321;BME280;65132;52.088;5.402;2023-04-06T07:29:57;101663.91;;;6.97;64.98
76321;BME280;65132;52.088;5.402;2023-04-06T07:32:23;101675.44;;;6.99;65.46
76321;BME280;65132;52.088;5.402;2023-04-06T07:34:49;101669.03;;;6.87;65.01
76321;BME280;65132;52.088;5.402;2023-04-06T07:37:19;101671.06;;;6.84;65.23
76321;BME280;65132;52.088;5.402;2023-04-06T07:39:45;101676.81;;;6.78;64.96
76321;BME280;65132;52.088;5.402;2023-04-06T07:42:12;101667.03;;;6.77;64.71
76321;BME280;65132;52.088;5.402;2023-04-06T07:44:38;101672.88;;;6.83;63.89
76321;BME280;65132;52.088;5.402;2023-04-06T07:47:08;101660.09;;;6.87;66.12
76321;BME280;65132;52.088;5.402;2023-04-06T07:49:35;101663.47;;;6.76;65.87
76321;BME280;65132;52.088;5.402;2023-04-06T07:52:02;101670.31;;;6.68;65.35
76321;BME280;65132;52.088;5.402;2023-04-06T07:54:29;101666.16;;;6.76;65.97
76321;BME280;65132;52.088;5.402;2023-04-06T07:56:55;101672.22;;;6.80;67.17
76321;BME280;65132;52.088;5.402;2023-04-06T07:59:21;101674.09;;;6.92;66.34
76321;BME280;65132;52.088;5.402;2023-04-06T08:01:51;101676.97;;;7.03;66.18
76321;BME280;65132;52.088;5.402;2023-04-06T08:04:18;101665.53;;;6.99;66.66
76321;BME280;65132;52.088;5.402;2023-04-06T08:06:44;101673.50;;;7.01;65.30
76321;BME280;65132;52.088;5.402;2023-04-06T08:09:13;101669.28;;;6.97;65.90
76321;BME280;65132;52.088;5.402;2023-04-06T08:11:41;101671.09;;;6.96;65.88
76321;BME280;65132;52.088;5.402;2023-04-06T08:14:08;101676.75;;;7.06;65.90
76321;BME280;65132;52.088;5.402;2023-04-06T08:16:38;101668.47;;;7.09;65.23
76321;BME280;65132;52.088;5.402;2023-04-06T08:19:04;101670.28;;;7.08;64.67
76321;BME280;65132;52.088;5.402;2023-04-06T08:21:38;101663.97;;;7.22;64.86
76321;BME280;65132;52.088;5.402;2023-04-06T08:24:12;101655.75;;;7.38;65.41
76321;BME280;65132;52.088;5.402;2023-04-06T08:26:42;101660.28;;;7.37;65.91
76321;BME280;65132;52.088;5.402;2023-04-06T08:29:09;101656.84;;;7.48;64.69
76321;BME280;65132;52.088;5.402;2023-04-06T08:31:35;101666.38;;;7.91;65.84
76321;BME280;65132;52.088;5.402;2023-04-06T08:34:05;101662.91;;;8.14;63.66
76321;BME280;65132;52.088;5.402;2023-04-06T08:36:33;101649.44;;;8.14;62.66
76321;BME280;65132;52.088;5.402;2023-04-06T08:39:00;101660.47;;;7.98;64.49
76321;BME280;65132;52.088;5.402;2023-04-06T08:41:27;101655.72;;;8.02;64.49
76321;BME280;65132;52.088;5.402;2023-04-06T08:43:59;101669.59;;;7.83;63.77
76321;BME280;65132;52.088;5.402;2023-04-06T08:46:26;101662.50;;;7.95;64.63
76321;BME280;65132;52.088;5.402;2023-04-06T08:49:01;101661.88;;;7.91;64.75
76321;BME280;65132;52.088;5.402;2023-04-06T08:51:29;101658.94;;;7.94;64.66
76321;BME280;65132;52.088;5.402;2023-04-06T08:53:57;101659.06;;;8.30;64.89
76321;BME280;65132;52.088;5.402;2023-04-06T08:56:31;101663.59;;;8.30;64.50
76321;BME280;65132;52.088;5.402;2023-04-06T08:59:02;101662.72;;;8.29;65.43
76321;BME280;65132;52.088;5.402;2023-04-06T09:01:30;101656.00;;;8.22;63.54
76321;BME280;65132;52.088;5.402;2023-04-06T09:04:00;101652.47;;;8.34;64.16
76321;BME280;65132;52.088;5.402;2023-04-06T09:06:27;101662.16;;;8.49;63.43
76321;BME280;65132;52.088;5.402;2023-04-06T09:08:54;101673.25;;;8.58;64.68
76321;BME280;65132;52.088;5.402;2023-04-06T09:11:21;101671.84;;;8.65;63.02
76321;BME280;65132;52.088;5.402;2023-04-06T09:13:52;101670.84;;;8.78;62.73
76321;BME280;65132;52.088;5.402;2023-04-06T09:16:20;101667.69;;;9.08;61.46
76321;BME280;65132;52.088;5.402;2023-04-06T09:18:47;101665.47;;;9.02;63.09
76321;BME280;65132;52.088;5.402;2023-04-06T09:21:17;101668.41;;;8.99;63.02
76321;BME280;65132;52.088;5.402;2023-04-06T09:23:43;101661.78;;;8.67;63.26
76321;BME280;65132;52.088;5.402;2023-04-06T09:26:12;101657.59;;;8.63;63.45
76321;BME280;65132;52.088;5.402;2023-04-06T09:31:37;101666.75;;;8.73;63.71
76321;BME280;65132;52.088;5.402;2023-04-06T09:34:04;101663.91;;;8.87;64.13
76321;BME280;65132;52.088;5.402;2023-04-06T09:36:32;101657.59;;;8.99;63.47
76321;BME280;65132;52.088;5.402;2023-04-06T09:39:02;101663.03;;;9.10;63.21
76321;BME280;65132;52.088;5.402;2023-04-06T09:41:35;101661.13;;;8.99;64.60
76321;BME280;65132;52.088;5.402;2023-04-06T09:44:10;101667.88;;;8.94;66.26
76321;BME280;65132;52.088;5.402;2023-04-06T09:46:38;101669.50;;;8.84;65.81
76321;BME280;65132;52.088;5.402;2023-04-06T09:49:26;101666.13;;;8.93;67.07
76321;BME280;65132;52.088;5.402;2023-04-06T09:52:02;101667.38;;;9.12;67.86
76321;BME280;65132;52.088;5.402;2023-04-06T09:54:31;101655.66;;;9.35;66.92
76321;BME280;65132;52.088;5.402;2023-04-06T09:57:03;101667.91;;;9.05;69.10
76321;BME280;65132;52.088;5.402;2023-04-06T09:59:43;101658.91;;;9.17;68.21
76321;BME280;65132;52.088;5.402;2023-04-06T10:02:25;101662.88;;;9.24;68.59
76321;BME280;65132;52.088;5.402;2023-04-06T10:05:01;101663.47;;;9.51;69.38
76321;BME280;65132;52.088;5.402;2023-04-06T10:07:28;101658.63;;;9.32;68.30
76321;BME280;65132;52.088;5.402;2023-04-06T10:09:58;101665.72;;;9.33;68.25
76321;BME280;65132;52.088;5.402;2023-04-06T10:12:25;101664.91;;;9.44;68.32
76321;BME280;65132;52.088;5.402;2023-04-06T10:14:51;101661.88;;;9.25;68.75
76321;BME280;65132;52.088;5.402;2023-04-06T10:17:18;101667.59;;;9.33;69.64
76321;BME280;65132;52.088;5.402;2023-04-06T10:19:55;101665.84;;;9.32;69.47
76321;BME280;65132;52.088;5.402;2023-04-06T10:22:55;101662.59;;;9.50;70.55
76321;BME280;65132;52.088;5.402;2023-04-06T10:25:30;101661.47;;;9.42;70.65
76321;BME280;65132;52.088;5.402;2023-04-06T10:28:04;101666.22;;;9.27;70.72
76321;BME280;65132;52.088;5.402;2023-04-06T10:30:32;101663.00;;;9.22;72.27
76321;BME280;65132;52.088;5.402;2023-04-06T10:32:59;101666.72;;;9.32;72.63
76321;BME280;65132;52.088;5.402;2023-04-06T10:35:37;101675.09;;;9.17;74.59
76321;BME280;65132;52.088;5.402;2023-04-06T10:38:04;101675.16;;;9.04;75.36
76321;BME280;65132;52.088;5.402;2023-04-06T10:40:31;101666.38;;;8.90;76.76
76321;BME280;65132;52.088;5.402;2023-04-06T10:45:38;101672.94;;;8.86;79.36
76321;BME280;65132;52.088;5.402;2023-04-06T10:48:14;101664.34;;;8.81;79.78
76321;BME280;65132;52.088;5.402;2023-04-06T10:50:49;101660.59;;;8.71;81.58
76321;BME280;65132;52.088;5.402;2023-04-06T10:53:28;101665.47;;;8.66;81.62
76321;BME280;65132;52.088;5.402;2023-04-06T10:55:56;101663.63;;;8.66;82.54
76321;BME280;65132;52.088;5.402;2023-04-06T10:58:27;101664.59;;;8.65;82.51
76321;BME280;65132;52.088;5.402;2023-04-06T11:00:54;101666.66;;;8.62;82.13
76321;BME280;65132;52.088;5.402;2023-04-06T11:03:23;101658.56;;;8.62;84.81
76321;BME280;65132;52.088;5.402;2023-04-06T11:05:51;101658.84;;;8.46;84.74
76321;BME280;65132;52.088;5.402;2023-04-06T11:08:28;101653.53;;;8.44;85.71
76321;BME280;65132;52.088;5.402;2023-04-06T11:11:11;101659.72;;;8.34;86.01
76321;BME280;65132;52.088;5.402;2023-04-06T11:13:38;101655.38;;;8.44;85.71
76321;BME280;65132;52.088;5.402;2023-04-06T11:16:05;101655.97;;;8.60;86.03
76321;BME280;65132;52.088;5.402;2023-04-06T11:18:34;101652.69;;;8.31;84.46
76321;BME280;65132;52.088;5.402;2023-04-06T11:21:03;101652.69;;;8.31;85.94
76321;BME280;65132;52.088;5.402;2023-04-06T11:23:29;101655.63;;;8.28;86.13
76321;BME280;65132;52.088;5.402;2023-04-06T11:25:56;101651.19;;;8.27;87.34
76321;BME280;65132;52.088;5.402;2023-04-06T11:28:25;101647.75;;;8.25;88.25
76321;BME280;65132;52.088;5.402;2023-04-06T11:30:51;101652.06;;;8.28;87.75
76321;BME280;65132;52.088;5.402;2023-04-06T11:33:21;101636.84;;;8.27;86.86
76321;BME280;65132;52.088;5.402;2023-04-06T11:35:48;101639.84;;;8.22;87.49
76321;BME280;65132;52.088;5.402;2023-04-06T11:38:15;101638.91;;;8.23;88.16
76321;BME280;65132;52.088;5.402;2023-04-06T11:40:45;101638.91;;;8.23;88.83
76321;BME280;65132;52.088;5.402;2023-04-06T11:43:13;101645.69;;;8.16;88.76
76321;BME280;65132;52.088;5.402;2023-04-06T11:45:41;101628.13;;;8.23;88.52
76321;BME280;65132;52.088;5.402;2023-04-06T11:48:18;101624.78;;;8.32;87.68
76321;BME280;65132;52.088;5.402;2023-04-06T11:50:49;101626.47;;;8.46;88.43
76321;BME280;65132;52.088;5.402;2023-04-06T11:53:21;101616.13;;;8.27;88.09
76321;BME280;65132;52.088;5.402;2023-04-06T11:55:47;101622.16;;;8.31;90.01
76321;BME280;65132;52.088;5.402;2023-04-06T11:58:15;101605.44;;;8.26;88.79
76321;BME280;65132;52.088;5.402;2023-04-06T12:00:43;101609.66;;;8.30;88.86
76321;BME280;65132;52.088;5.402;2023-04-06T12:03:11;101607.91;;;8.41;90.64
76321;BME280;65132;52.088;5.402;2023-04-06T12:05:38;101610.19;;;8.35;88.46
76321;BME280;65132;52.088;5.402;2023-04-06T12:08:06;101607.38;;;8.36;89.58
76321;BME280;65132;52.088;5.402;2023-04-06T12:10:32;101609.66;;;8.30;89.62
76321;BME280;65132;52.088;5.402;2023-04-06T12:12:58;101607.19;;;8.27;90.25
76321;BME280;65132;52.088;5.402;2023-04-06T12:15:25;101601.91;;;8.25;90.26
76321;BME280;65132;52.088;5.402;2023-04-06T12:17:51;101607.06;;;8.41;90.45
76321;BME280;65132;52.088;5.402;2023-04-06T12:20:18;101597.59;;;8.35;90.98
76321;BME280;65132;52.088;5.402;2023-04-06T12:23:02;101589.16;;;8.27;90.74
76321;BME280;65132;52.088;5.402;2023-04-06T12:25:29;101598.34;;;8.25;90.50
76321;BME280;65132;52.088;5.402;2023-04-06T12:27:59;101600.50;;;8.20;90.44
76321;BME280;65132;52.088;5.402;2023-04-06T12:30:35;101587.13;;;8.18;90.36
76321;BME280;65132;52.088;5.402;2023-04-06T12:33:01;101588.41;;;8.13;90.55
76321;BME280;65132;52.088;5.402;2023-04-06T12:35:28;101589.47;;;8.10;89.79
76321;BME280;65132;52.088;5.402;2023-04-06T12:37:57;101588.94;;;8.18;90.57
76321;BME280;65132;52.088;5.402;2023-04-06T12:40:23;101593.13;;;8.34;90.21
76321;BME280;65132;52.088;5.402;2023-04-06T12:42:50;101590.03;;;8.28;90.29
76321;BME280;65132;52.088;5.402;2023-04-06T12:45:16;101592.97;;;8.25;91.11
76321;BME280;65132;52.088;5.402;2023-04-06T12:47:44;101591.66;;;8.18;89.22
76321;BME280;65132;52.088;5.402;2023-04-06T12:50:15;101585.00;;;8.23;90.40
76321;BME280;65132;52.088;5.402;2023-04-06T12:52:41;101586.91;;;8.21;90.45
76321;BME280;65132;52.088;5.402;2023-04-06T12:55:10;101582.94;;;8.27;89.95
76321;BME280;65132;52.088;5.402;2023-04-06T12:57:36;101576.19;;;8.45;92.48
76321;BME280;65132;52.088;5.402;2023-04-06T13:00:05;101570.91;;;8.43;90.70
76321;BME280;65132;52.088;5.402;2023-04-06T13:02:35;101568.16;;;8.32;91.84
76321;BME280;65132;52.088;5.402;2023-04-06T13:05:02;101559.41;;;8.16;91.18
76321;BME280;65132;52.088;5.402;2023-04-06T13:07:30;101571.78;;;8.19;93.08
76321;BME280;65132;52.088;5.402;2023-04-06T13:09:57;101564.38;;;8.10;92.60
76321;BME280;65132;52.088;5.402;2023-04-06T13:12:25;101564.69;;;8.05;92.64